Time;durP1;ratioP1;P1;durP2;ratioP2;P2;SDS_P1;SDS_P2;PMS_P1;PMS_P2;Temp;Humidity;BMP_temperature;BMP_pressure;BME280_temperature;BME280_humidity;BME280_pressure;Samples;Min_cycle;Max_cycle;Signal;HPM_P1;HPM_P2
2023/03/04 00:00:21;;;;;;;8.52;5.93;;;;;;;19.74;46.02;101300.09;5033012;28;20052;-55
2023/03/04 00:02:49;;;;;;;7.18;5.78;;;;;;;19.75;45.89;101303.63;5032972;28;20049;-52
2023/03/04 00:05:16;;;;;;;7.35;5.93;;;;;;;19.75;45.79;101307.16;5040761;28;20041;-50
2023/03/04 00:07:46;;;;;;;6.40;5.20;;;;;;;19.77;45.87;101304.38;5036715;28;20045;-55
2023/03/04 00:10:14;;;;;;;9.63;6.28;;;;;;;19.77;46.04;101304.38;5036212;28;20037;-55
2023/03/04 00:12:41;;;;;;;9.00;5.97;;;;;;;19.76;45.78;101306.19;5049997;28;20048;-55
2023/03/04 00:15:09;;;;;;;9.32;6.13;;;;;;;19.75;45.74;101304.47;5031710;28;20057;-55
2023/03/04 00:17:36;;;;;;;6.70;5.50;;;;;;;19.76;45.70;101305.31;5034922;28;20049;-56
2023/03/04 00:20:04;;;;;;;7.82;6.65;;;;;;;19.74;45.92;101310.84;5035502;28;20053;-53
2023/03/04 00:22:31;;;;;;;7.55;6.15;;;;;;;19.73;45.68;101317.19;5040292;28;20044;-54
2023/03/04 00:24:58;;;;;;;8.23;6.28;;;;;;;19.72;45.59;101310.09;5050931;28;20044;-53
2023/03/04 00:27:25;;;;;;;9.07;6.22;;;;;;;19.73;45.47;101319.03;5037634;28;20046;-54
2023/03/04 00:29:53;;;;;;;10.05;5.75;;;;;;;19.72;45.32;101322.66;5036453;28;20045;-49
2023/03/04 00:32:20;;;;;;;8.90;5.72;;;;;;;19.71;45.33;101324.50;5035327;28;20049;-53
2023/03/04 00:34:48;;;;;;;8.15;5.55;;;;;;;19.70;45.59;101321.94;5036725;28;20042;-53
2023/03/04 00:37:15;;;;;;;7.43;5.95;;;;;;;19.70;45.29;101319.25;5051285;28;20045;-54
2023/03/04 00:39:42;;;;;;;10.55;6.03;;;;;;;19.70;45.11;101325.50;5056263;28;20045;-53
2023/03/04 00:42:10;;;;;;;9.13;5.95;;;;;;;19.68;45.20;101322.06;5055118;28;20395;-50
2023/03/04 00:44:38;;;;;;;8.45;6.10;;;;;;;19.68;45.13;101316.69;5055184;28;20056;-53
2023/03/04 00:47:05;;;;;;;6.95;5.30;;;;;;;19.68;44.84;101313.16;5056383;28;20079;-55
2023/03/04 00:49:32;;;;;;;7.43;5.68;;;;;;;19.67;44.96;101309.59;5056270;28;20045;-54
2023/03/04 00:51:59;;;;;;;9.27;5.65;;;;;;;19.67;44.81;101306.91;5054640;28;20052;-52
2023/03/04 00:54:27;;;;;;;8.82;5.82;;;;;;;19.67;44.84;101314.13;5056272;28;20044;-53
2023/03/04 00:56:54;;;;;;;9.43;6.20;;;;;;;19.67;44.52;101323.03;5055673;28;20049;-54
2023/03/04 00:59:21;;;;;;;10.23;5.65;;;;;;;19.66;44.86;101318.66;5054494;28;20052;-53
2023/03/04 01:01:49;;;;;;;6.72;5.80;;;;;;;19.65;44.57;101310.72;5054712;28;20065;-53
2023/03/04 01:04:17;;;;;;;7.72;6.13;;;;;;;19.65;44.72;101313.41;5051261;28;20049;-53
2023/03/04 01:06:44;;;;;;;7.80;5.38;;;;;;;19.64;44.58;101304.47;5035846;28;20049;-53
2023/03/04 01:09:11;;;;;;;7.95;5.88;;;;;;;19.64;44.39;101317.91;5035796;28;20050;-53
2023/03/04 01:11:38;;;;;;;7.45;5.80;;;;;;;19.63;44.47;101310.84;5036122;28;20046;-52
2023/03/04 01:14:06;;;;;;;8.00;5.70;;;;;;;19.63;44.63;101309.97;5035758;28;20049;-55
2023/03/04 01:16:33;;;;;;;9.05;6.20;;;;;;;19.63;44.58;101309.97;5040883;28;20460;-55
2023/03/04 01:19:01;;;;;;;5.90;5.30;;;;;;;19.62;44.50;101311.81;5055262;28;20044;-54
2023/03/04 01:21:29;;;;;;;6.90;5.75;;;;;;;19.62;44.46;101309.13;5055999;28;20403;-50
2023/03/04 01:23:57;;;;;;;7.22;5.60;;;;;;;19.60;44.64;101307.50;5055157;28;20053;-54
2023/03/04 01:26:24;;;;;;;8.27;5.30;;;;;;;19.60;44.46;101300.28;5046251;28;20037;-54
2023/03/04 01:28:52;;;;;;;7.28;5.72;;;;;;;19.58;44.51;101302.25;5034539;28;20072;-54
2023/03/04 01:31:19;;;;;;;6.13;4.95;;;;;;;19.58;44.55;101296.88;5035292;28;20048;-53
2023/03/04 01:33:47;;;;;;;6.80;5.35;;;;;;;19.58;44.41;101299.56;5035255;28;20053;-54
2023/03/04 01:36:14;;;;;;;7.50;5.30;;;;;;;19.57;44.51;101295.19;5035622;28;20037;-54
2023/03/04 01:38:41;;;;;;;6.82;5.88;;;;;;;19.57;44.49;101297.88;5035205;28;20057;-54
2023/03/04 01:41:11;;;;;;;8.57;5.70;;;;;;;19.57;44.38;101292.50;5035153;28;20057;-54
2023/03/04 01:43:38;;;;;;;6.95;5.35;;;;;;;19.57;44.41;101289.81;5035696;28;20045;-55
2023/03/04 01:46:06;;;;;;;7.20;5.22;;;;;;;19.58;44.55;101296.03;5034010;28;20053;-52
2023/03/04 01:48:36;;;;;;;7.03;5.55;;;;;;;19.57;44.71;101300.56;5035181;28;20062;-53
2023/03/04 01:51:12;;;;;;;8.43;6.10;;;;;;;19.57;44.57;101292.50;5035388;28;20075;-54
2023/03/04 01:53:42;;;;;;;6.00;5.15;;;;;;;19.58;44.53;101296.88;5034033;28;20065;-54
2023/03/04 01:56:15;;;;;;;7.90;5.68;;;;;;;19.57;44.49;101287.13;5034102;28;20049;-54
2023/03/04 01:58:43;;;;;;;7.00;5.78;;;;;;;19.57;44.42;101280.88;5034671;28;20045;-53
2023/03/04 02:01:16;;;;;;;8.60;5.07;;;;;;;19.56;44.33;101284.53;5034802;28;20045;-52
2023/03/04 02:03:44;;;;;;;9.23;5.57;;;;;;;19.56;44.41;101279.19;5034885;28;20404;-54
2023/03/04 02:06:11;;;;;;;7.68;5.60;;;;;;;19.57;44.52;101288.94;5033549;28;20057;-53
2023/03/04 02:08:38;;;;;;;6.53;5.32;;;;;;;19.56;44.48;101282.72;5034623;28;20049;-53
2023/03/04 02:11:06;;;;;;;7.85;5.95;;;;;;;19.55;44.54;101281.00;5051158;28;20049;-52
2023/03/04 02:13:34;;;;;;;7.10;5.22;;;;;;;19.55;44.32;101272.97;5052922;28;20060;-53
2023/03/04 02:16:02;;;;;;;5.97;4.57;;;;;;;19.55;44.35;101275.63;5054405;28;20048;-53
2023/03/04 02:18:29;;;;;;;6.78;5.00;;;;;;;19.54;44.40;101271.25;5053633;28;20052;-54
2023/03/04 02:21:17;;;;;;;7.43;5.50;;;;;;;19.55;44.46;101269.41;5054328;28;20059;-51
2023/03/04 02:23:44;;;;;;;8.50;5.60;;;;;;;19.54;44.49;101276.63;5053581;28;20487;-52
2023/03/04 02:26:19;;;;;;;7.13;5.25;;;;;;;19.54;44.35;101273.94;5054010;28;20052;-54
2023/03/04 02:28:51;;;;;;;8.43;5.20;;;;;;;19.54;44.62;101283.84;5034883;28;20060;-54
2023/03/04 02:31:28;;;;;;;6.43;5.45;;;;;;;19.53;44.42;101277.63;5034105;28;20042;-53
2023/03/04 02:33:59;;;;;;;6.32;4.60;;;;;;;19.53;44.33;101274.94;5033540;28;20626;-53
2023/03/04 02:36:28;;;;;;;7.45;5.38;;;;;;;19.52;44.37;101271.34;5033891;28;20056;-53
2023/03/04 02:39:01;;;;;;;5.32;4.82;;;;;;;19.53;44.42;101272.25;5053253;28;20056;-53
2023/03/04 02:41:29;;;;;;;7.57;5.07;;;;;;;19.53;44.42;101274.94;5051970;28;20487;-54
2023/03/04 02:43:58;;;;;;;5.75;4.90;;;;;;;19.52;44.57;101275.88;5052108;28;20772;-53
2023/03/04 02:46:26;;;;;;;6.90;5.05;;;;;;;19.51;44.53;101272.34;5053094;28;20447;-53
2023/03/04 02:48:54;;;;;;;7.28;4.80;;;;;;;19.51;44.40;101280.41;5053887;28;20476;-52
2023/03/04 02:51:21;;;;;;;7.30;5.13;;;;;;;19.52;44.55;101275.88;5054139;28;20045;-53
2023/03/04 02:53:48;;;;;;;7.03;5.00;;;;;;;19.50;44.64;101273.31;5053619;28;20048;-53
2023/03/04 02:56:16;;;;;;;6.20;4.63;;;;;;;19.50;44.38;101275.16;5053554;28;20048;-53
2023/03/04 02:58:43;;;;;;;6.38;4.35;;;;;;;19.49;44.51;101271.63;5051318;28;20057;-53
2023/03/04 03:01:11;;;;;;;6.55;5.15;;;;;;;19.49;44.40;101276.16;5032364;28;20053;-54
2023/03/04 03:03:38;;;;;;;8.35;5.57;;;;;;;19.49;44.38;101270.78;5033069;28;20416;-53
2023/03/04 03:06:06;;;;;;;13.77;5.38;;;;;;;19.49;44.50;101270.78;5033860;28;20361;-54
2023/03/04 03:08:34;;;;;;;6.57;5.25;;;;;;;19.47;44.46;101261.97;5032541;28;20049;-54
2023/03/04 03:11:01;;;;;;;6.35;4.78;;;;;;;19.48;44.33;101274.41;5033492;28;20041;-52
2023/03/04 03:13:30;;;;;;;7.43;4.57;;;;;;;19.48;44.50;101263.66;5016919;28;20061;-53
2023/03/04 03:15:58;;;;;;;6.20;4.38;;;;;;;19.48;44.40;101258.31;5032078;28;20476;-54
2023/03/04 03:18:25;;;;;;;6.32;4.47;;;;;;;19.47;44.38;101262.81;5033271;28;20064;-52
2023/03/04 03:20:52;;;;;;;7.22;5.20;;;;;;;19.48;44.41;101256.47;5053140;28;20052;-55
2023/03/04 03:23:20;;;;;;;6.97;4.60;;;;;;;19.47;44.64;101251.22;5053110;28;20057;-53
2023/03/04 03:25:47;;;;;;;6.85;4.82;;;;;;;19.48;44.45;101252.94;5051673;28;20075;-51
2023/03/04 03:28:15;;;;;;;5.55;4.55;;;;;;;19.47;44.49;101262.81;5045953;28;20048;-52
2023/03/04 03:30:42;;;;;;;6.72;5.00;;;;;;;19.47;44.40;101257.44;5031376;28;20487;-52
2023/03/04 03:33:09;;;;;;;7.43;5.00;;;;;;;19.48;44.60;101255.63;5032223;28;20542;-53
2023/03/04 03:35:37;;;;;;;6.57;5.00;;;;;;;19.46;44.33;101247.69;5031791;28;20049;-52
2023/03/04 03:38:04;;;;;;;6.03;4.57;;;;;;;19.47;44.34;101256.59;5033036;28;20045;-53
2023/03/04 03:40:31;;;;;;;6.10;4.80;;;;;;;19.46;44.53;101255.75;5033465;28;20045;-52
2023/03/04 03:42:59;;;;;;;7.03;5.00;;;;;;;19.46;44.44;101245.00;5033093;28;20050;-53
2023/03/04 03:45:26;;;;;;;7.22;5.15;;;;;;;19.47;44.53;101251.22;5033161;28;20052;-52
2023/03/04 03:47:54;;;;;;;6.55;5.25;;;;;;;19.46;44.55;101255.75;5033313;28;20057;-53
2023/03/04 03:50:21;;;;;;;6.20;4.70;;;;;;;19.46;44.38;101255.75;5045141;28;20049;-52
2023/03/04 03:52:48;;;;;;;6.07;4.40;;;;;;;19.46;44.37;101252.22;5055634;28;20067;-53
2023/03/04 03:55:16;;;;;;;6.28;4.63;;;;;;;19.45;44.49;101248.69;5057274;28;20048;-53
2023/03/04 03:57:43;;;;;;;6.50;4.60;;;;;;;19.46;44.47;101245.00;5056796;28;20037;-53
2023/03/04 04:00:11;;;;;;;6.00;4.35;;;;;;;19.45;44.64;101243.31;5043529;28;20743;-52
2023/03/04 04:02:39;;;;;;;6.40;4.70;;;;;;;19.45;44.54;101246.00;5036379;28;20504;-54
2023/03/04 04:05:08;;;;;;;6.57;4.68;;;;;;;19.45;44.47;101240.63;5035888;28;20052;-52
2023/03/04 04:07:36;;;;;;;5.63;4.43;;;;;;;19.46;44.34;101239.63;5036809;28;20395;-52
2023/03/04 04:10:04;;;;;;;6.63;4.95;;;;;;;19.45;44.46;101237.09;5036899;28;20046;-53
2023/03/04 04:12:32;;;;;;;7.05;4.50;;;;;;;19.44;44.43;101243.41;5036717;28;20494;-54
2023/03/04 04:14:59;;;;;;;6.45;4.80;;;;;;;19.45;44.44;101239.78;5036708;28;20057;-55
2023/03/04 04:17:26;;;;;;;6.97;4.95;;;;;;;19.44;44.34;101244.25;5037113;28;20037;-55
2023/03/04 04:19:54;;;;;;;6.07;4.95;;;;;;;19.45;44.61;101247.84;5036370;28;20053;-54
2023/03/04 04:22:21;;;;;;;7.32;4.80;;;;;;;19.43;44.62;101256.00;5036420;28;20542;-55
2023/03/04 04:24:49;;;;;;;7.32;5.15;;;;;;;19.43;44.56;101253.31;5036517;28;20055;-51
2023/03/04 04:27:17;;;;;;;5.78;4.57;;;;;;;19.42;44.45;101254.28;5036345;28;20037;-53
2023/03/04 04:29:44;;;;;;;8.20;4.25;;;;;;;19.42;44.41;101254.28;5035559;28;20053;-54
2023/03/04 04:32:12;;;;;;;5.53;4.50;;;;;;;19.44;44.53;101248.78;5036224;28;20553;-56
2023/03/04 04:34:39;;;;;;;7.22;4.47;;;;;;;19.44;44.59;101248.78;5036434;28;20419;-55
2023/03/04 04:37:06;;;;;;;4.90;3.72;;;;;;;19.41;44.68;101241.84;5036633;28;20041;-54
2023/03/04 04:39:34;;;;;;;6.60;4.07;;;;;;;19.43;44.63;101247.09;5054795;28;20052;-55
2023/03/04 04:42:01;;;;;;;6.32;4.90;;;;;;;19.40;44.90;101240.13;5056129;28;20048;-54
2023/03/04 04:44:28;;;;;;;6.60;4.25;;;;;;;19.40;44.77;101241.94;5056408;28;20388;-52
2023/03/04 04:46:55;;;;;;;6.78;4.30;;;;;;;19.41;44.73;101238.31;5055993;28;20037;-55
2023/03/04 04:49:23;;;;;;;7.30;4.80;;;;;;;19.41;44.81;101238.31;5055956;28;20048;-54
2023/03/04 04:51:50;;;;;;;6.43;4.15;;;;;;;19.41;44.63;101241.84;5056350;28;20045;-54
2023/03/04 04:54:17;;;;;;;5.50;4.70;;;;;;;19.41;44.69;101235.63;5055763;28;20041;-55
2023/03/04 04:56:45;;;;;;;6.60;4.07;;;;;;;19.41;44.53;101239.16;5055971;28;20044;-52
2023/03/04 04:59:12;;;;;;;5.57;3.85;;;;;;;19.40;44.65;101240.13;5056136;28;20048;-54
2023/03/04 05:01:40;;;;;;;5.88;4.18;;;;;;;19.41;44.60;101244.53;5055883;28;20072;-56
2023/03/04 05:04:07;;;;;;;5.85;3.97;;;;;;;19.41;44.65;101247.22;5054624;28;20045;-55
2023/03/04 05:06:35;;;;;;;5.28;4.13;;;;;;;19.42;44.65;101248.06;5056026;28;20049;-53
2023/03/04 05:09:03;;;;;;;6.63;4.85;;;;;;;19.42;44.59;101242.69;5055634;28;20052;-53
2023/03/04 05:11:30;;;;;;;7.32;4.82;;;;;;;19.41;44.75;101232.94;5055659;28;20486;-52
2023/03/04 05:13:58;;;;;;;5.55;4.35;;;;;;;19.40;44.57;101239.25;5055688;28;20056;-56
2023/03/04 05:16:25;;;;;;;5.93;3.97;;;;;;;19.41;44.59;101241.00;5055756;28;20468;-54
2023/03/04 05:18:52;;;;;;;6.68;4.28;;;;;;;19.40;44.50;101239.25;5055490;28;20041;-54
2023/03/04 05:21:20;;;;;;;5.28;3.63;;;;;;;19.40;44.55;101236.56;5055301;28;20048;-51
2023/03/04 05:23:47;;;;;;;5.45;4.22;;;;;;;19.39;44.45;101237.56;5055172;28;20053;-55
2023/03/04 05:26:16;;;;;;;6.85;4.90;;;;;;;19.39;44.71;101230.34;5055346;28;20049;-54
2023/03/04 05:28:44;;;;;;;6.10;4.15;;;;;;;19.39;44.61;101237.56;5055146;28;20041;-53
2023/03/04 05:31:12;;;;;;;6.40;3.90;;;;;;;19.39;44.61;101238.41;5039583;28;20037;-54
2023/03/04 05:33:39;;;;;;;5.35;4.32;;;;;;;19.39;44.57;101237.56;5035300;28;20415;-53
2023/03/04 05:36:07;;;;;;;5.78;4.20;;;;;;;19.39;44.49;101243.78;5035649;28;20049;-54
2023/03/04 05:38:35;;;;;;;5.97;4.13;;;;;;;19.38;44.64;101243.91;5036491;28;20053;-55
2023/03/04 05:41:06;;;;;;;4.90;3.78;;;;;;;19.37;44.62;101242.22;5035187;28;20046;-51
2023/03/04 05:43:34;;;;;;;5.85;4.15;;;;;;;19.37;44.48;101236.84;5035161;28;20049;-54
2023/03/04 05:46:03;;;;;;;4.60;3.72;;;;;;;19.37;44.58;101244.91;5034800;28;20049;-53
2023/03/04 05:48:30;;;;;;;6.03;4.15;;;;;;;19.37;44.46;101244.91;5034962;28;20045;-51
2023/03/04 05:51:00;;;;;;;6.07;4.03;;;;;;;19.36;44.50;101248.53;5034830;28;20045;-53
2023/03/04 05:53:28;;;;;;;5.35;4.18;;;;;;;19.36;44.58;101253.91;5034213;28;20396;-54
2023/03/04 05:55:55;;;;;;;5.88;3.90;;;;;;;19.36;44.68;101261.97;5035163;28;20049;-54
2023/03/04 05:58:22;;;;;;;4.90;4.07;;;;;;;19.35;44.58;101257.56;5034901;28;20049;-53
2023/03/04 06:00:50;;;;;;;5.18;3.90;;;;;;;19.35;44.61;101266.47;5035245;28;20057;-54
2023/03/04 06:03:20;;;;;;;5.70;4.80;;;;;;;19.35;44.62;101262.94;5035115;28;20042;-54
2023/03/04 06:05:48;;;;;;;5.95;4.25;;;;;;;19.34;44.67;101259.41;5034739;28;20063;-52
2023/03/04 06:08:15;;;;;;;5.95;4.55;;;;;;;19.34;44.81;101269.31;5034727;28;20041;-53
2023/03/04 06:10:42;;;;;;;5.88;3.80;;;;;;;19.33;44.60;101265.75;5034623;28;20052;-55
2023/03/04 06:13:10;;;;;;;5.15;3.75;;;;;;;19.34;44.59;101271.97;5034769;28;20049;-55
2023/03/04 06:15:38;;;;;;;5.53;3.95;;;;;;;19.33;44.63;101276.50;5034593;28;20052;-53
2023/03/04 06:18:06;;;;;;;5.15;3.67;;;;;;;19.33;44.73;101278.34;5039059;28;20033;-54
2023/03/04 06:20:34;;;;;;;4.85;4.05;;;;;;;19.33;44.63;101281.88;5054096;28;20045;-54
2023/03/04 06:23:02;;;;;;;5.22;4.00;;;;;;;19.33;44.46;101278.34;5053399;28;20055;-52
2023/03/04 06:25:30;;;;;;;6.47;4.68;;;;;;;19.33;44.43;101271.13;5054564;28;20067;-54
2023/03/04 06:27:57;;;;;;;5.25;4.22;;;;;;;19.33;44.48;101270.28;5054075;28;20056;-53
2023/03/04 06:30:24;;;;;;;6.45;3.78;;;;;;;19.34;44.42;101285.41;5053164;28;20072;-51
2023/03/04 06:32:52;;;;;;;5.20;3.50;;;;;;;19.33;44.42;101284.56;5032403;28;20054;-55
2023/03/04 06:35:19;;;;;;;6.68;3.95;;;;;;;19.34;44.32;101293.47;5034072;28;20045;-51
2023/03/04 06:37:47;;;;;;;4.93;3.80;;;;;;;19.33;44.42;101281.88;5036577;28;20472;-54
2023/03/04 06:40:14;;;;;;;7.75;4.32;;;;;;;19.35;44.31;101292.47;5054345;28;20049;-50
2023/03/04 06:42:42;;;;;;;5.75;3.97;;;;;;;19.34;44.17;101291.63;5054000;28;20061;-53
2023/03/04 06:45:10;;;;;;;4.65;3.58;;;;;;;19.34;44.54;101294.31;5053818;28;20377;-55
2023/03/04 06:47:37;;;;;;;5.60;4.05;;;;;;;19.34;44.39;101296.16;5053659;28;20056;-54
2023/03/04 06:50:05;;;;;;;4.05;3.40;;;;;;;19.34;44.34;101296.16;5053981;28;20044;-52
2023/03/04 06:52:32;;;;;;;6.03;4.10;;;;;;;19.34;44.37;101283.56;5053614;28;20411;-54
2023/03/04 06:55:00;;;;;;;6.90;3.80;;;;;;;19.34;44.32;101296.16;5053711;28;20046;-54
2023/03/04 06:57:27;;;;;;;4.38;3.58;;;;;;;19.35;44.33;101300.53;5053621;28;20381;-51
2023/03/04 06:59:54;;;;;;;6.10;3.65;;;;;;;19.35;44.35;101305.91;5053495;28;20410;-51
2023/03/04 07:02:22;;;;;;;7.68;4.38;;;;;;;19.35;44.31;101306.75;5053582;28;20053;-54
2023/03/04 07:04:49;;;;;;;5.53;3.70;;;;;;;19.35;44.39;101301.38;5053516;28;20502;-51
2023/03/04 07:07:17;;;;;;;4.07;3.40;;;;;;;19.35;44.27;101305.91;5053744;28;20044;-55
2023/03/04 07:09:44;;;;;;;5.50;3.38;;;;;;;19.35;44.27;101305.91;5053248;28;20048;-55
2023/03/04 07:12:11;;;;;;;5.78;3.70;;;;;;;19.35;44.41;101300.53;5053758;28;20067;-54
2023/03/04 07:14:38;;;;;;;4.85;3.90;;;;;;;19.36;44.09;101307.59;5053146;28;20051;-55
2023/03/04 07:17:06;;;;;;;7.28;3.92;;;;;;;19.36;44.17;101304.91;5052580;28;20361;-52
2023/03/04 07:19:33;;;;;;;5.75;3.35;;;;;;;19.35;44.07;101306.75;5052785;28;20054;-55
2023/03/04 07:22:00;;;;;;;7.00;4.05;;;;;;;19.36;44.01;101313.81;5053174;28;20086;-54
2023/03/04 07:24:28;;;;;;;5.50;4.03;;;;;;;19.37;44.09;101312.03;5053276;28;20052;-51
2023/03/04 07:26:55;;;;;;;4.90;3.70;;;;;;;19.37;43.90;101310.19;5052603;28;20067;-54
2023/03/04 07:29:22;;;;;;;5.70;4.15;;;;;;;19.37;43.95;101317.38;5053388;28;20041;-51
2023/03/04 07:31:49;;;;;;;5.32;3.45;;;;;;;19.37;43.92;101314.72;5047785;28;20058;-55
2023/03/04 07:34:20;;;;;;;4.75;3.65;;;;;;;19.38;43.89;101317.25;5032427;28;20052;-54
2023/03/04 07:36:47;;;;;;;5.57;4.20;;;;;;;19.38;43.97;101314.56;5032767;28;20041;-54
2023/03/04 07:39:14;;;;;;;5.22;4.10;;;;;;;19.38;43.84;101321.78;5032764;28;20434;-54
2023/03/04 07:41:41;;;;;;;4.55;3.45;;;;;;;19.38;43.98;101322.63;5033139;28;20052;-52
2023/03/04 07:44:10;;;;;;;6.53;4.07;;;;;;;19.38;44.03;101316.41;5033242;28;20050;-54
2023/03/04 07:46:39;;;;;;;5.38;3.72;;;;;;;19.38;43.84;101319.09;5033013;28;20054;-55
2023/03/04 07:49:07;;;;;;;5.03;3.92;;;;;;;19.39;43.86;101318.09;5032977;28;20037;-54
2023/03/04 07:51:34;;;;;;;5.70;3.88;;;;;;;19.39;44.01;101328.84;5033420;28;20045;-55
2023/03/04 07:54:02;;;;;;;6.53;3.67;;;;;;;19.39;44.16;101329.69;5031669;28;20065;-54
2023/03/04 07:56:32;;;;;;;5.30;4.13;;;;;;;19.39;44.13;101329.69;5033265;28;20045;-54
2023/03/04 07:58:59;;;;;;;5.32;3.45;;;;;;;19.39;44.17;101331.53;5037145;28;20049;-55
2023/03/04 08:01:35;;;;;;;5.20;3.88;;;;;;;19.37;44.35;101328.97;5015640;28;20049;-54
2023/03/04 08:04:06;;;;;;;4.63;3.60;;;;;;;19.37;44.46;101331.66;5032952;28;20052;-52
2023/03/04 08:06:34;;;;;;;4.88;3.70;;;;;;;19.38;44.45;101329.84;5033293;28;20049;-51
2023/03/04 08:09:05;;;;;;;5.72;3.63;;;;;;;19.37;44.39;101330.81;5032699;28;20048;-54
2023/03/04 08:11:34;;;;;;;6.80;4.20;;;;;;;19.36;44.35;101335.31;5033061;28;20049;-53
2023/03/04 08:14:02;;;;;;;6.30;3.90;;;;;;;19.35;44.62;101327.38;5033067;28;20038;-53
2023/03/04 08:16:29;;;;;;;6.25;3.92;;;;;;;19.36;44.58;101329.94;5032652;28;20415;-54
2023/03/04 08:19:02;;;;;;;4.65;3.45;;;;;;;19.36;44.63;101323.72;5032701;28;20038;-54
2023/03/04 08:21:30;;;;;;;5.18;3.47;;;;;;;19.37;44.56;101322.75;5033071;28;20049;-54
2023/03/04 08:24:00;;;;;;;5.70;3.45;;;;;;;19.37;44.41;101322.75;5032928;28;20061;-54
2023/03/04 08:26:32;;;;;;;6.20;3.75;;;;;;;19.36;44.69;101324.56;5032682;28;20048;-55
2023/03/04 08:29:02;;;;;;;5.32;3.80;;;;;;;19.36;44.69;101312.97;5032641;28;20056;-55
2023/03/04 08:31:30;;;;;;;5.00;3.42;;;;;;;19.36;44.69;101318.34;5032868;28;20050;-51
2023/03/04 08:33:58;;;;;;;6.25;3.40;;;;;;;19.35;44.92;101311.28;5034345;28;20037;-54
2023/03/04 08:36:25;;;;;;;5.40;3.70;;;;;;;19.36;44.57;101315.66;5032312;28;20056;-54
2023/03/04 08:38:52;;;;;;;4.78;3.55;;;;;;;19.36;44.78;101316.50;5039414;28;20053;-55
2023/03/04 08:41:21;;;;;;;6.55;4.25;;;;;;;19.37;44.83;101314.72;5056557;28;20045;-54
2023/03/04 08:43:48;;;;;;;6.07;3.80;;;;;;;19.37;44.72;101312.88;5056211;28;20049;-54
2023/03/04 08:46:16;;;;;;;4.78;3.60;;;;;;;19.37;44.92;101312.88;5056136;28;20041;-55
2023/03/04 08:48:43;;;;;;;6.07;4.40;;;;;;;19.38;44.75;101308.34;5056228;28;20045;-56
2023/03/04 08:51:13;;;;;;;6.30;4.00;;;;;;;19.42;44.95;101304.44;5055828;28;20072;-50
2023/03/04 08:53:41;;;;;;;6.85;3.97;;;;;;;19.44;45.16;101297.97;5056066;28;20045;-50
2023/03/04 08:56:09;;;;;;;5.50;4.07;;;;;;;19.46;44.94;101306.78;5055944;28;20072;-53
2023/03/04 08:58:37;;;;;;;10.00;5.97;;;;;;;19.49;44.51;101311.06;5055225;28;20048;-51
2023/03/04 09:01:09;;;;;;;7.45;4.45;;;;;;;19.50;44.88;101299.34;5035694;28;20049;-52
2023/03/04 09:03:36;;;;;;;5.00;3.92;;;;;;;19.51;44.68;101301.88;5036171;28;20433;-50
2023/03/04 09:06:06;;;;;;;5.93;4.40;;;;;;;19.54;44.73;101300.78;5035744;28;20049;-53
2023/03/04 09:08:34;;;;;;;6.90;4.10;;;;;;;19.56;44.47;101292.59;5035579;28;20041;-51
2023/03/04 09:11:02;;;;;;;6.65;4.22;;;;;;;19.57;44.69;101297.00;5035563;28;20045;-50
2023/03/04 09:13:32;;;;;;;8.35;4.55;;;;;;;19.59;44.38;101305.78;5035970;28;20053;-50
2023/03/04 09:16:00;;;;;;;5.32;4.18;;;;;;;19.60;44.33;101302.13;5035562;28;20050;-55
2023/03/04 09:18:28;;;;;;;4.75;3.40;;;;;;;19.60;44.43;101294.06;5035440;28;20050;-50
2023/03/04 09:20:56;;;;;;;6.75;4.50;;;;;;;19.60;44.37;101294.91;5040540;28;20392;-52
2023/03/04 09:23:23;;;;;;;5.55;3.67;;;;;;;19.62;44.21;101297.53;5055096;28;20059;-54
2023/03/04 09:25:50;;;;;;;6.47;4.22;;;;;;;19.63;44.16;101300.09;5055050;28;20052;-55
2023/03/04 09:28:18;;;;;;;5.50;4.13;;;;;;;19.63;44.14;101294.72;5055314;28;20095;-53
2023/03/04 09:30:45;;;;;;;6.22;4.03;;;;;;;19.63;44.18;101294.72;5055088;28;20464;-55
2023/03/04 09:33:13;;;;;;;7.00;4.00;;;;;;;19.64;44.14;101295.56;5055138;28;20053;-52
2023/03/04 09:35:40;;;;;;;6.75;4.32;;;;;;;19.64;44.07;101287.50;5035488;28;20045;-51
2023/03/04 09:38:08;;;;;;;6.18;4.45;;;;;;;19.65;44.10;101287.41;5053704;28;20049;-54
2023/03/04 09:40:43;;;;;;;6.60;4.32;;;;;;;19.65;44.11;101284.72;5053702;28;20052;-50
2023/03/04 09:43:18;;;;;;;4.72;3.65;;;;;;;19.65;43.93;101282.03;5055595;28;20057;-53
2023/03/04 09:45:59;;;;;;;7.25;4.43;;;;;;;19.66;43.86;101278.38;5054780;28;20052;-54
2023/03/04 09:48:28;;;;;;;5.72;3.85;;;;;;;19.66;43.81;101273.00;5054525;28;20052;-51
2023/03/04 09:51:13;;;;;;;6.00;4.13;;;;;;;19.68;43.94;101281.75;5054461;28;20044;-54
2023/03/04 09:54:01;;;;;;;5.03;3.60;;;;;;;19.68;43.86;101267.47;5054749;28;20048;-53
2023/03/04 09:56:38;;;;;;;5.47;4.10;;;;;;;19.68;43.92;101264.78;5054652;28;20052;-51
2023/03/04 09:59:20;;;;;;;7.35;4.47;;;;;;;19.68;43.95;101271.00;5050638;28;20037;-55
2023/03/04 10:01:52;;;;;;;5.65;4.00;;;;;;;19.67;43.88;101261.25;5034730;28;20400;-54
2023/03/04 10:04:28;;;;;;;5.90;4.03;;;;;;;19.69;44.04;101269.22;5047468;28;20052;-54
2023/03/04 10:06:55;;;;;;;5.93;3.78;;;;;;;19.69;43.96;101266.53;5054327;28;20056;-53
2023/03/04 10:09:27;;;;;;;6.32;4.35;;;;;;;19.69;43.88;101258.47;5054331;28;20116;-54
2023/03/04 10:12:01;;;;;;;5.15;3.53;;;;;;;19.69;43.84;101256.63;5054771;28;20048;-51
2023/03/04 10:14:34;;;;;;;7.18;3.75;;;;;;;19.70;43.99;101257.47;5054454;28;20049;-53
2023/03/04 10:17:12;;;;;;;5.13;3.55;;;;;;;19.71;44.16;101257.34;5054381;28;20487;-54
2023/03/04 10:19:50;;;;;;;4.70;3.80;;;;;;;19.71;44.06;101261.88;5054671;28;20045;-52
2023/03/04 10:22:35;;;;;;;5.35;3.92;;;;;;;19.71;43.97;101253.81;5054065;28;20053;-53
2023/03/04 10:25:26;;;;;;;8.50;3.97;;;;;;;19.73;44.05;101246.50;5054417;28;20045;-50
2023/03/04 10:28:24;;;;;;;5.47;3.72;;;;;;;19.73;44.21;101247.34;5054259;28;20053;-53
2023/03/04 10:30:56;;;;;;;7.13;3.55;;;;;;;19.74;44.11;101240.13;5052968;28;20064;-53
2023/03/04 10:33:41;;;;;;;9.07;3.72;;;;;;;19.75;44.17;101239.16;5054159;28;20053;-54
2023/03/04 10:36:30;;;;;;;7.03;3.63;;;;;;;19.76;44.00;101241.69;5038721;28;20044;-55
2023/03/04 10:39:00;;;;;;;9.55;3.80;;;;;;;19.76;44.03;101236.31;5034962;28;20053;-53
2023/03/04 10:41:30;;;;;;;8.52;3.80;;;;;;;19.79;44.03;101234.38;5052594;28;20521;-54
2023/03/04 10:43:57;;;;;;;6.80;4.18;;;;;;;19.78;43.98;101230.84;5053210;28;20051;-54
2023/03/04 10:46:25;;;;;;;4.68;3.22;;;;;;;19.78;44.15;101238.06;5053741;28;20067;-52
2023/03/04 10:48:53;;;;;;;8.10;3.47;;;;;;;19.77;44.02;101229.16;5053651;28;20391;-51
2023/03/04 10:51:24;;;;;;;12.00;5.30;;;;;;;19.73;40.25;101220.47;5054021;28;20442;-52
2023/03/04 10:54:03;;;;;;;13.73;6.47;;;;;;;19.67;37.88;101215.59;5053716;28;20056;-50
2023/03/04 10:56:37;;;;;;;11.40;6.90;;;;;;;19.60;37.95;101217.03;5053113;28;20056;-53
2023/03/04 10:59:33;;;;;;;7.95;6.03;;;;;;;19.58;40.54;101213.63;5049589;28;20044;-49
2023/03/04 11:02:12;;;;;;;10.70;4.85;;;;;;;19.64;40.73;101207.78;5032949;28;20068;-48
2023/03/04 11:04:39;;;;;;;9.07;5.65;;;;;;;19.73;40.30;101212.44;5033888;28;20050;-46
2023/03/04 11:07:09;;;;;;;10.55;5.28;;;;;;;19.75;40.47;101205.09;5033231;28;20364;-49
2023/03/04 11:09:36;;;;;;;8.73;4.55;;;;;;;19.76;40.41;101205.94;5033273;28;20533;-47
2023/03/04 11:12:10;;;;;;;15.82;7.22;;;;;;;19.72;40.39;101197.25;5033888;28;20137;-47
2023/03/04 11:14:49;;;;;;;10.50;7.00;;;;;;;19.63;40.24;101192.66;5033351;28;20046;-49
2023/03/04 11:17:24;;;;;;;14.98;7.97;;;;;;;19.56;43.03;101193.25;5051494;28;20057;-50
2023/03/04 11:20:05;;;;;;;10.93;5.78;;;;;;;19.56;43.83;101195.94;5053191;28;20049;-47
2023/03/04 11:22:33;;;;;;;8.57;4.63;;;;;;;19.59;43.42;101180.41;5053058;28;20498;-48
2023/03/04 11:25:07;;;;;;;8.23;4.68;;;;;;;19.61;43.96;101183.88;5053028;28;20049;-48
2023/03/04 11:27:44;;;;;;;9.35;4.65;;;;;;;19.64;43.78;101180.91;5053116;28;20052;-50
2023/03/04 11:30:26;;;;;;;9.57;5.32;;;;;;;19.65;45.58;101163.84;5052502;28;20053;-47
2023/03/04 11:32:59;;;;;;;10.25;6.70;;;;;;;19.63;43.63;101165.78;5053122;28;20045;-49